Hilldale, Tennessee
Current Conditions -  °F | °C
As of 11:52 AM on Monday 24 Nov 2014 (Local Time) from KCKV Reporting Station
Few Clouds Few Clouds  
Wind Chill: 52°   Ceiling: Unl
Heat Index: 52°   Visibility: 10mi
Dew Point: 36°   Wind: 12mph
Humidity: 54%   Direction: 250°WSW
Pressure: 29.77"   Gusts: 22mph
Location:  36.4964°N, 87.234°W
Report Text: KCKV 241752Z AUTO 25010G19KT 10SM FEW034 11/02 A2977 RMK AO2 PK WND 21026/1711 SLP078 60000 T01110022 10161 20094 51008
Loading
Personal Weather Stations






























Interactive Weather Map New forecast layout! Learn more

10-Day Weather Forecast

Advertisements
Track Severe Weather on mobile